Time;durP1;ratioP1;P1;durP2;ratioP2;P2;SDS_P1;SDS_P2;PMS_P1;PMS_P2;Temp;Humidity;BMP_temperature;BMP_pressure;BME280_temperature;BME280_humidity;BME280_pressure;Samples;Min_cycle;Max_cycle;Signal;HPM_P1;HPM_P2
2021/10/10 00:04:26;;;;;;;13.82;6.95;;;4.10;99.90;;;;;;21070796;28;20028;-49
2021/10/10 00:14:27;;;;;;;17.88;7.10;;;3.90;99.90;;;;;;21070199;28;20028;-51
2021/10/10 00:24:29;;;;;;;17.17;8.15;;;3.60;99.90;;;;;;21069614;28;20028;-52
2021/10/10 00:34:31;;;;;;;17.85;9.70;;;3.40;99.90;;;;;;21073000;28;20054;-54
2021/10/10 00:44:35;;;;;;;17.52;9.20;;;3.50;99.90;;;;;;21145059;28;20491;-50
2021/10/10 00:54:39;;;;;;;21.83;8.27;;;3.90;99.90;;;;;;21170298;28;20568;-49
2021/10/10 01:04:40;;;;;;;17.40;9.27;;;4.10;99.90;;;;;;21151120;28;20524;-54
2021/10/10 01:14:43;;;;;;;21.67;8.73;;;3.70;99.90;;;;;;21168755;28;20077;-49
2021/10/10 01:24:46;;;;;;;18.42;9.15;;;3.30;99.90;;;;;;21168161;28;20023;-53
2021/10/10 01:34:48;;;;;;;22.85;10.05;;;3.10;99.90;;;;;;21167215;28;20047;-49
2021/10/10 01:44:50;;;;;;;16.30;9.50;;;2.90;99.90;;;;;;21165701;28;20048;-49
2021/10/10 01:54:52;;;;;;;19.60;9.43;;;2.70;99.90;;;;;;21165301;28;20088;-50
2021/10/10 02:04:54;;;;;;;21.65;11.88;;;2.50;99.90;;;;;;21165638;28;20034;-49
2021/10/10 02:14:56;;;;;;;23.40;11.57;;;2.50;99.90;;;;;;21163993;28;20239;-54
2021/10/10 02:24:59;;;;;;;22.38;11.52;;;2.50;99.90;;;;;;21162956;28;20038;-49
2021/10/10 02:35:00;;;;;;;23.60;10.60;;;2.40;99.90;;;;;;21162423;28;20479;-52
2021/10/10 02:45:04;;;;;;;24.42;11.15;;;2.20;99.90;;;;;;21224143;27;20570;-52
2021/10/10 02:55:07;;;;;;;27.02;12.68;;;2.10;99.90;;;;;;21191910;27;20023;-54
2021/10/10 03:05:09;;;;;;;26.38;11.98;;;2.10;99.90;;;;;;21159308;28;20069;-49
2021/10/10 03:15:11;;;;;;;30.58;12.30;;;2.10;99.90;;;;;;21158685;28;20053;-51
2021/10/10 03:25:13;;;;;;;24.77;10.82;;;2.10;99.90;;;;;;21139714;28;20047;-55
2021/10/10 03:35:15;;;;;;;35.63;15.63;;;2.40;99.90;;;;;;21157438;28;20476;-53
2021/10/10 03:45:17;;;;;;;25.38;11.85;;;2.70;99.90;;;;;;21092040;28;20078;-53
2021/10/10 04:15:36;;;;;;;21.67;10.65;;;2.60;99.90;;;;;;21070483;28;20105;-50
2021/10/10 04:25:38;;;;;;;23.73;10.73;;;2.50;99.90;;;;;;21051219;28;20436;-49
2021/10/10 04:35:40;;;;;;;23.42;11.18;;;2.40;99.90;;;;;;21069711;28;20035;-53
2021/10/10 04:45:42;;;;;;;26.58;13.02;;;2.60;99.90;;;;;;21205563;28;20478;-50
2021/10/10 04:55:44;;;;;;;30.73;14.82;;;2.70;99.90;;;;;;21179965;28;20032;-49
2021/10/10 05:05:46;;;;;;;22.33;10.25;;;2.60;99.90;;;;;;21152128;28;20043;-52
2021/10/10 05:15:48;;;;;;;21.83;10.75;;;2.60;99.90;;;;;;21152524;28;20034;-54
2021/10/10 05:25:50;;;;;;;17.40;9.35;;;2.70;99.90;;;;;;21163432;28;20043;-52
2021/10/10 05:35:52;;;;;;;17.83;8.15;;;2.80;99.90;;;;;;21167269;28;20035;-54
2021/10/10 05:45:54;;;;;;;49.67;11.45;;;2.80;99.90;;;;;;21165687;28;20048;-52
2021/10/10 05:56:00;;;;;;;755.25;34.78;;;2.80;99.90;;;;;;21165247;28;20073;-49
2021/10/10 06:06:03;;;;;;;87.10;11.13;;;2.90;99.90;;;;;;21164391;28;20065;-51
2021/10/10 06:16:06;;;;;;;15.82;8.23;;;2.90;99.90;;;;;;21163882;28;20437;-52
2021/10/10 06:26:08;;;;;;;23.33;11.25;;;2.70;99.90;;;;;;21164453;28;20036;-49
2021/10/10 06:36:11;;;;;;;19.63;10.57;;;3.00;99.90;;;;;;21162287;28;20028;-51
2021/10/10 06:46:13;;;;;;;18.27;8.10;;;3.60;99.90;;;;;;21233732;27;20354;-49
2021/10/10 06:56:15;;;;;;;12.27;6.82;;;4.00;99.90;;;;;;21182832;27;20054;-54
2021/10/10 07:06:17;;;;;;;13.48;6.80;;;4.50;99.90;;;;;;21159358;28;20027;-49
2021/10/10 07:16:25;;;;;;;10.00;5.93;;;4.90;99.90;;;;;;21158584;28;20034;-48
2021/10/10 07:26:27;;;;;;;12.75;6.03;;;5.40;99.90;;;;;;21139674;28;20109;-53
2021/10/10 07:36:29;;;;;;;14.65;6.13;;;6.00;99.90;;;;;;21157033;28;20043;-49
2021/10/10 07:46:38;;;;;;;13.40;5.20;;;6.70;99.90;;;;;;21080725;28;20044;-49
2021/10/10 07:56:40;;;;;;;6.97;4.22;;;7.20;99.90;;;;;;21071525;28;20028;-52
2021/10/10 08:06:42;;;;;;;5.93;3.35;;;7.80;99.90;;;;;;21052549;28;20442;-49
2021/10/10 08:16:45;;;;;;;11.38;5.82;;;8.20;99.90;;;;;;21070401;28;20032;-49
2021/10/10 08:26:47;;;;;;;9.18;4.63;;;9.00;99.90;;;;;;21069803;28;20110;-53
2021/10/10 08:36:49;;;;;;;12.35;5.47;;;9.70;99.90;;;;;;21070017;28;20445;-50
2021/10/10 08:46:53;;;;;;;10.38;5.38;;;10.10;99.90;;;;;;21224056;28;20100;-49
2021/10/10 08:56:55;;;;;;;6.82;3.85;;;10.10;99.90;;;;;;21175544;28;20035;-51
2021/10/10 09:06:58;;;;;;;13.30;4.53;;;10.00;99.90;;;;;;21169239;28;20039;-55
2021/10/10 09:17:18;;;;;;;8.45;4.45;;;10.60;99.90;;;;;;21168564;28;20027;-52
2021/10/10 09:27:26;;;;;;;9.03;4.10;;;10.50;99.90;;;;;;21167738;28;20039;-49
2021/10/10 09:37:44;;;;;;;8.07;4.15;;;10.10;99.90;;;;;;21167701;28;20092;-50
2021/10/10 09:47:56;;;;;;;10.57;4.68;;;10.30;99.90;;;;;;21165944;28;20035;-50
2021/10/10 09:57:59;;;;;;;8.48;4.35;;;10.00;99.90;;;;;;21164715;28;20043;-52
2021/10/10 10:08:01;;;;;;;7.90;4.82;;;9.40;99.90;;;;;;21163694;28;20027;-50
2021/10/10 10:18:04;;;;;;;7.22;4.43;;;10.50;99.90;;;;;;21164040;28;20027;-49
2021/10/10 10:28:10;;;;;;;8.63;4.32;;;11.40;99.90;;;;;;21162840;28;20184;-52
2021/10/10 10:38:12;;;;;;;5.82;3.90;;;12.00;99.90;;;;;;21166130;27;20038;-50
2021/10/10 10:48:27;;;;;;;8.57;3.92;;;11.90;99.90;;;;;;21246341;27;20030;-49
2021/10/10 10:58:46;;;;;;;9.63;3.70;;;12.20;99.90;;;;;;21163335;27;20552;-52
2021/10/10 11:08:50;;;;;;;9.55;4.47;;;12.60;99.90;;;;;;21159067;28;20031;-51
2021/10/10 11:18:54;;;;;;;10.23;3.90;;;12.80;99.90;;;;;;21158128;28;20077;-53
2021/10/10 11:29:10;;;;;;;7.68;3.63;;;12.60;99.90;;;;;;21157337;28;20513;-49
2021/10/10 11:39:24;;;;;;;7.88;4.25;;;12.80;99.90;;;;;;21157242;28;20093;-49
2021/10/10 11:49:27;;;;;;;8.18;4.03;;;12.80;99.90;;;;;;21151338;28;20024;-49
2021/10/10 11:59:29;;;;;;;8.20;4.18;;;12.60;99.90;;;;;;21071542;28;20027;-51
2021/10/10 12:09:32;;;;;;;8.82;4.03;;;12.80;99.90;;;;;;21070152;28;20048;-49
2021/10/10 12:19:43;;;;;;;6.50;3.67;;;12.80;99.90;;;;;;21070463;28;20050;-52
2021/10/10 12:29:45;;;;;;;6.47;3.58;;;13.10;99.90;;;;;;21069076;28;20055;-49
2021/10/10 12:39:48;;;;;;;8.70;4.70;;;12.80;99.90;;;;;;21068502;28;20111;-49
2021/10/10 12:49:56;;;;;;;7.60;4.57;;;12.60;99.90;;;;;;21068712;28;20032;-49
2021/10/10 12:59:59;;;;;;;7.47;4.40;;;12.40;99.90;;;;;;21068342;28;20028;-53
2021/10/10 13:10:01;;;;;;;8.57;4.68;;;12.20;99.90;;;;;;21068520;28;20032;-50
2021/10/10 13:20:05;;;;;;;8.50;4.38;;;12.00;99.90;;;;;;21068162;28;20028;-52
2021/10/10 13:30:07;;;;;;;9.60;4.55;;;11.60;99.90;;;;;;21068854;28;20028;-51
2021/10/10 13:40:10;;;;;;;8.77;4.32;;;11.20;99.90;;;;;;21050823;28;20052;-49
2021/10/10 13:50:11;;;;;;;16.67;5.28;;;10.40;99.90;;;;;;21070161;28;20063;-52
2021/10/10 14:00:14;;;;;;;11.48;5.45;;;9.60;99.90;;;;;;20996776;28;20036;-49
2021/10/10 14:10:17;;;;;;;12.88;5.72;;;9.10;99.90;;;;;;21042211;28;20032;-51
2021/10/10 14:20:20;;;;;;;11.45;5.88;;;8.80;99.90;;;;;;21078599;28;20066;-53
2021/10/10 14:30:23;;;;;;;11.25;6.45;;;8.60;99.90;;;;;;21078449;28;20360;-50
2021/10/10 14:40:26;;;;;;;9.73;6.00;;;8.30;99.90;;;;;;21082285;28;20087;-49
2021/10/10 14:50:29;;;;;;;13.20;5.82;;;8.00;99.90;;;;;;21160935;28;20600;-55
2021/10/10 15:00:31;;;;;;;14.40;7.10;;;7.70;99.90;;;;;;21159012;28;20406;-49
2021/10/10 15:10:33;;;;;;;12.23;6.55;;;7.30;99.90;;;;;;21157853;28;20028;-54
2021/10/10 15:20:35;;;;;;;13.32;6.45;;;6.90;99.90;;;;;;21158821;28;20027;-49
2021/10/10 15:30:37;;;;;;;10.15;5.93;;;6.80;99.90;;;;;;21157697;28;20541;-52
2021/10/10 15:40:40;;;;;;;13.52;7.18;;;6.40;99.90;;;;;;21156939;28;20043;-49
2021/10/10 15:50:43;;;;;;;17.65;7.43;;;5.80;99.90;;;;;;21156155;28;20359;-52
2021/10/10 16:00:45;;;;;;;14.60;8.15;;;5.30;99.90;;;;;;21155614;28;20035;-53
2021/10/10 16:10:51;;;;;;;15.25;8.35;;;4.90;99.90;;;;;;21154221;28;20052;-53
2021/10/10 16:20:53;;;;;;;14.73;8.32;;;4.60;99.90;;;;;;21154461;28;20031;-49
2021/10/10 16:30:56;;;;;;;20.55;10.35;;;4.20;99.90;;;;;;21153685;28;20061;-50
2021/10/10 16:41:04;;;;;;;19.88;10.73;;;3.90;99.90;;;;;;21153166;28;20047;-49
2021/10/10 16:51:07;;;;;;;20.15;10.82;;;3.70;99.90;;;;;;21152900;28;20536;-50
2021/10/10 17:01:09;;;;;;;24.85;10.63;;;3.50;99.90;;;;;;21153815;28;20036;-54
2021/10/10 17:11:16;;;;;;;19.77;11.60;;;3.40;99.90;;;;;;21153199;28;20100;-48
2021/10/10 17:21:17;;;;;;;20.98;12.77;;;3.20;99.90;;;;;;21163497;28;20097;-50
2021/10/10 17:31:19;;;;;;;21.92;10.55;;;3.00;99.90;;;;;;21167765;28;20077;-50
2021/10/10 17:41:21;;;;;;;19.92;11.05;;;2.90;99.90;;;;;;21167619;28;20052;-49
2021/10/10 17:51:23;;;;;;;17.42;10.07;;;2.80;99.90;;;;;;21165687;28;20475;-49
2021/10/10 18:12:01;;;;;;;24.33;11.30;;;2.90;99.90;;;;;;21164146;28;20050;-51
2021/10/10 18:22:04;;;;;;;22.95;12.38;;;2.90;99.90;;;;;;21164052;28;20032;-50
2021/10/10 18:32:07;;;;;;;24.50;13.23;;;2.70;99.90;;;;;;21162847;28;20035;-53
2021/10/10 18:42:10;;;;;;;29.15;13.48;;;2.60;99.90;;;;;;21199926;27;20044;-53
2021/10/10 18:52:12;;;;;;;22.85;12.43;;;2.50;99.90;;;;;;21217775;27;20433;-51
2021/10/10 19:02:15;;;;;;;10.95;6.55;;;2.50;99.90;;;;;;21160415;28;20040;-50
2021/10/10 19:12:17;;;;;;;9.77;4.57;;;2.50;99.90;;;;;;21159730;28;20039;-52
2021/10/10 19:22:21;;;;;;;8.15;2.78;;;2.50;99.90;;;;;;21158943;28;20062;-54
2021/10/10 19:32:23;;;;;;;5.57;2.80;;;2.70;99.90;;;;;;21158205;28;20023;-50
2021/10/10 19:42:25;;;;;;;7.05;2.75;;;2.80;99.90;;;;;;21116506;28;20044;-55
2021/10/10 19:52:27;;;;;;;4.40;2.10;;;3.10;99.90;;;;;;21072092;28;20036;-54
2021/10/10 20:02:30;;;;;;;5.63;1.98;;;3.30;99.90;;;;;;21071473;28;20035;-49
2021/10/10 20:12:33;;;;;;;2.85;1.67;;;3.50;99.90;;;;;;21070583;28;20036;-63
2021/10/10 20:22:36;;;;;;;2.47;1.30;;;3.60;99.90;;;;;;21069452;28;20085;-60
2021/10/10 20:32:38;;;;;;;4.05;1.58;;;4.10;99.90;;;;;;21052364;28;20543;-60
2021/10/10 20:42:40;;;;;;;5.78;1.70;;;4.70;99.90;;;;;;21110604;28;20043;-58
2021/10/10 20:52:43;;;;;;;4.28;1.50;;;4.30;99.90;;;;;;21159477;28;20080;-60
2021/10/10 21:02:45;;;;;;;4.13;1.48;;;4.40;99.90;;;;;;21169718;28;20032;-62
2021/10/10 21:12:47;;;;;;;4.07;1.85;;;5.30;99.90;;;;;;21168937;28;20108;-64
2021/10/10 21:22:49;;;;;;;5.13;2.63;;;5.30;99.90;;;;;;21167864;28;20043;-62
2021/10/10 21:32:55;;;;;;;3.30;1.73;;;4.50;99.90;;;;;;21166992;28;20085;-58
2021/10/10 21:42:56;;;;;;;2.80;1.35;;;3.90;99.90;;;;;;21166915;28;20044;-62
2021/10/10 21:52:58;;;;;;;3.42;1.88;;;4.80;99.90;;;;;;21130659;28;20032;-50
2021/10/10 22:03:00;;;;;;;3.03;1.60;;;5.50;99.90;;;;;;21079637;28;20028;-49
2021/10/10 22:13:02;;;;;;;4.00;1.73;;;5.80;99.90;;;;;;21078770;28;20028;-49
2021/10/10 22:23:10;;;;;;;3.47;1.92;;;5.50;99.90;;;;;;21079242;28;20032;-50
2021/10/10 22:33:12;;;;;;;3.72;1.58;;;4.80;99.90;;;;;;21142053;28;20474;-51
2021/10/10 22:43:16;;;;;;;1.85;0.95;;;4.70;99.90;;;;;;21208167;27;20043;-54
2021/10/10 22:53:18;;;;;;;2.25;1.23;;;5.00;99.90;;;;;;21208176;27;20046;-50
2021/10/10 23:03:19;;;;;;;2.42;1.27;;;5.10;99.90;;;;;;21159638;28;20399;-49
2021/10/10 23:13:21;;;;;;;2.28;0.90;;;4.50;99.90;;;;;;21158204;28;20106;-50
2021/10/10 23:23:23;;;;;;;3.50;1.08;;;4.10;99.90;;;;;;21158421;28;20557;-54
2021/10/10 23:33:25;;;;;;;1.58;1.00;;;4.10;99.90;;;;;;21157315;28;20077;-50
2021/10/10 23:43:27;;;;;;;1.20;0.73;;;5.00;99.90;;;;;;21156584;28;20052;-49
2021/10/10 23:53:29;;;;;;;2.38;0.98;;;5.60;99.90;;;;;;21155596;28;20312;-48
